Time;durP1;ratioP1;P1;durP2;ratioP2;P2;SDS_P1;SDS_P2;PMS_P1;PMS_P2;Temp;Humidity;BMP_temperature;BMP_pressure;BME280_temperature;BME280_humidity;BME280_pressure;Samples;Min_cycle;Max_cycle;Signal;HPM_P1;HPM_P2
2021/05/27 00:01:39;;;;;;;1.03;0.70;;;8.30;99.90;;;9.56;100.00;99960.22;4989771;28;20682;-61
2021/05/27 00:04:06;;;;;;;1.23;0.80;;;8.30;99.90;;;9.43;100.00;99969.66;4989690;28;20532;-62
2021/05/27 00:06:33;;;;;;;1.53;0.90;;;8.30;99.90;;;9.41;100.00;99960.97;4989843;28;20261;-61
2021/05/27 00:08:59;;;;;;;1.10;0.80;;;8.20;99.90;;;9.45;100.00;99973.00;5000270;28;20540;-62
2021/05/27 00:11:25;;;;;;;0.80;0.80;;;8.20;99.90;;;9.42;100.00;99967.97;5009444;28;20325;-62
2021/05/27 00:13:52;;;;;;;1.10;0.93;;;8.20;99.90;;;9.33;100.00;99975.94;5009013;28;20234;-61
2021/05/27 00:16:19;;;;;;;4.00;1.00;;;8.20;99.90;;;9.30;100.00;99978.94;5009508;28;20211;-61
2021/05/27 00:18:51;;;;;;;1.30;1.20;;;8.20;99.90;;;9.28;100.00;99982.75;5009406;28;20597;-60
2021/05/27 00:21:19;;;;;;;1.20;1.07;;;8.10;99.90;;;9.30;100.00;99978.09;5009089;28;20264;-62
2021/05/27 00:23:45;;;;;;;2.47;1.10;;;8.10;99.90;;;9.25;100.00;99981.25;5009075;28;20331;-61
2021/05/27 00:26:18;;;;;;;2.13;1.43;;;8.10;99.90;;;9.32;100.00;99981.44;5008889;28;20215;-61
2021/05/27 00:28:49;;;;;;;1.70;1.40;;;8.10;99.90;;;9.29;100.00;99985.25;5009280;28;20206;-61
2021/05/27 00:31:16;;;;;;;2.03;1.43;;;8.10;99.90;;;9.28;100.00;99985.41;5008838;28;20514;-61
2021/05/27 00:33:42;;;;;;;1.30;1.20;;;8.10;99.90;;;9.26;100.00;99985.59;5008621;28;20285;-61
2021/05/27 00:36:09;;;;;;;2.17;1.30;;;8.00;99.90;;;9.29;100.00;99992.44;5009498;28;20313;-61
2021/05/27 00:38:37;;;;;;;1.50;1.30;;;8.00;99.90;;;9.22;100.00;99997.56;5008891;28;20712;-61
2021/05/27 00:41:04;;;;;;;2.40;1.70;;;8.00;99.90;;;9.31;100.00;99991.28;5009457;28;20577;-61
2021/05/27 00:43:30;;;;;;;1.43;1.33;;;8.00;99.90;;;9.26;100.00;99995.44;5008809;28;20597;-60
2021/05/27 00:45:57;;;;;;;1.87;1.40;;;8.00;99.90;;;9.25;100.00;100005.28;5008801;28;20529;-61
2021/05/27 00:51:09;;;;;;;1.97;1.40;;;8.00;99.90;;;9.24;100.00;100002.75;4989862;28;20266;-62
2021/05/27 00:53:36;;;;;;;2.33;1.60;;;8.00;99.90;;;9.22;100.00;99997.56;4990074;28;20218;-62
2021/05/27 00:56:04;;;;;;;1.70;1.60;;;8.00;99.90;;;9.26;100.00;99998.94;5009146;28;20530;-61
2021/05/27 00:58:32;;;;;;;2.03;1.77;;;8.00;99.90;;;9.19;100.00;100005.88;5008573;28;20257;-62
2021/05/27 01:00:59;;;;;;;2.33;1.80;;;8.00;99.90;;;9.21;100.00;100000.41;4989869;28;20229;-61
2021/05/27 01:03:26;;;;;;;2.10;1.90;;;7.90;99.90;;;9.16;100.00;99992.84;4989519;28;20716;-62
2021/05/27 01:05:52;;;;;;;2.20;2.00;;;7.90;99.90;;;9.15;100.00;100007.19;5003240;28;20212;-60
2021/05/27 01:08:20;;;;;;;2.47;1.90;;;7.90;99.90;;;9.19;100.00;100008.56;4992591;28;20238;-62
2021/05/27 01:10:51;;;;;;;2.07;1.90;;;7.90;99.90;;;9.15;100.00;100004.50;4989745;28;20717;-61
2021/05/27 01:13:21;;;;;;;2.47;2.27;;;7.90;99.90;;;9.15;100.00;100006.38;5008039;28;20525;-62
2021/05/27 01:15:47;;;;;;;2.40;2.20;;;7.90;99.90;;;9.10;100.00;100012.16;4989107;28;20796;-61
2021/05/27 01:18:17;;;;;;;5.37;2.10;;;7.90;99.90;;;9.04;100.00;100014.59;5008420;28;20239;-62
2021/05/27 01:20:46;;;;;;;2.80;2.47;;;7.90;99.90;;;9.01;100.00;100015.78;5008313;28;20214;-61
2021/05/27 01:23:14;;;;;;;3.63;2.10;;;7.80;99.90;;;9.09;100.00;100010.50;5008247;28;20218;-62
2021/05/27 01:25:43;;;;;;;2.50;2.30;;;7.80;99.90;;;8.99;100.00;100005.25;5008432;28;20635;-61
2021/05/27 01:28:11;;;;;;;2.47;2.17;;;7.80;99.90;;;9.03;100.00;100008.44;4989578;28;20560;-61
2021/05/27 01:30:37;;;;;;;2.60;2.40;;;7.80;99.90;;;9.02;100.00;100014.78;4989724;28;20977;-61
2021/05/27 01:33:10;;;;;;;2.43;2.23;;;7.80;99.90;;;9.06;100.00;100018.78;4990001;28;20254;-62
2021/05/27 01:35:37;;;;;;;2.30;1.93;;;7.80;99.90;;;8.98;100.00;100014.25;4990510;28;20277;-61
2021/05/27 01:38:13;;;;;;;2.90;2.63;;;7.80;99.90;;;9.00;100.00;100014.09;5008328;28;20423;-61
2021/05/27 01:40:42;;;;;;;2.80;2.50;;;7.80;99.90;;;9.02;100.00;100016.63;4981440;28;20221;-62
2021/05/27 01:43:09;;;;;;;2.63;2.40;;;7.70;99.90;;;9.04;100.00;100025.28;4989458;28;20474;-61
2021/05/27 01:45:38;;;;;;;2.57;2.37;;;7.80;99.90;;;9.00;100.00;100019.44;4995569;28;20281;-60
2021/05/27 01:48:11;;;;;;;3.13;2.80;;;7.80;99.90;;;9.01;100.00;100018.44;4990772;28;20533;-61
2021/05/27 01:50:41;;;;;;;4.20;2.77;;;7.80;99.90;;;9.02;100.00;100020.13;5005483;28;20541;-62
2021/05/27 01:53:08;;;;;;;3.10;2.90;;;7.70;99.90;;;9.02;100.00;100022.78;4972378;28;20329;-61
2021/05/27 01:55:40;;;;;;;3.13;2.87;;;7.70;99.90;;;8.98;100.00;100016.91;5007842;28;20343;-62
2021/05/27 01:58:07;;;;;;;3.47;3.17;;;7.70;99.90;;;9.04;100.00;100025.28;5007990;28;20419;-61
2021/05/27 02:00:42;;;;;;;2.97;2.77;;;7.70;99.90;;;9.04;100.00;100028.78;4989425;28;20907;-62
2021/05/27 02:03:12;;;;;;;4.27;3.00;;;7.70;99.90;;;8.99;100.00;100031.09;4988542;28;20372;-62
2021/05/27 02:05:41;;;;;;;6.07;3.27;;;7.70;99.90;;;9.05;100.00;100033.13;4986399;28;20661;-61
2021/05/27 02:08:10;;;;;;;3.27;2.97;;;7.70;99.90;;;9.01;100.00;100037.13;4969488;28;20242;-60
2021/05/27 02:10:46;;;;;;;3.30;3.00;;;7.70;99.90;;;9.07;100.00;100033.81;4969724;28;20483;-61
2021/05/27 02:13:54;;;;;;;4.13;3.47;;;7.70;99.90;;;9.06;100.00;100044.66;4982807;28;20504;-62
2021/05/27 02:32:35;;;;;;;3.80;3.50;;;7.70;99.90;;;8.89;100.00;100046.34;4930065;28;20473;-62
2021/05/27 02:36:09;;;;;;;3.83;3.13;;;7.70;99.90;;;8.87;100.00;100043.00;4941083;28;20606;-61
2021/05/27 02:43:02;;;;;;;4.40;3.50;;;7.60;99.90;;;8.88;100.00;100045.53;4955999;28;20546;-61
2021/05/27 02:46:23;;;;;;;4.43;4.03;;;7.60;99.90;;;8.89;100.00;100041.88;4985701;28;20316;-62
2021/05/27 02:49:35;;;;;;;4.73;4.23;;;7.60;99.90;;;8.95;100.00;100040.38;4988692;28;20229;-60
2021/05/27 02:53:13;;;;;;;4.53;4.20;;;7.50;99.90;;;9.06;100.00;100050.00;4998883;28;20652;-61
2021/05/27 02:56:30;;;;;;;4.90;4.40;;;7.60;99.90;;;9.06;100.00;100044.66;4986289;28;20565;-61
2021/05/27 03:03:36;;;;;;;6.13;5.33;;;7.70;99.90;;;9.10;100.00;100054.88;4901712;28;20345;-60
2021/05/27 03:07:09;;;;;;;5.83;5.30;;;7.70;99.90;;;9.22;100.00;100047.47;4906113;28;20630;-60
2021/05/27 03:10:21;;;;;;;8.83;5.23;;;7.80;99.90;;;9.31;100.00;100046.50;4849628;29;20330;-60
2021/05/27 03:13:56;;;;;;;5.10;4.60;;;7.90;99.90;;;9.30;100.00;100039.50;4908064;28;20324;-58
2021/05/27 03:17:25;;;;;;;5.57;5.07;;;8.00;99.90;;;9.40;100.00;100042.06;4975724;28;20416;-60
2021/05/27 03:23:55;;;;;;;5.10;4.60;;;8.20;99.90;;;9.53;100.00;100053.16;4971797;28;20427;-59
2021/05/27 03:34:07;;;;;;;5.93;5.30;;;8.50;99.90;;;9.59;100.00;100053.41;4988125;28;20219;-59
2021/05/27 03:37:30;;;;;;;5.20;4.70;;;8.50;99.90;;;9.61;100.00;100051.41;4990087;28;20379;-60
2021/05/27 03:44:56;;;;;;;5.40;4.90;;;8.70;99.90;;;9.69;100.00;100061.28;4934323;28;20243;-60
2021/05/27 03:51:38;;;;;;;6.67;5.70;;;8.70;99.90;;;9.86;100.00;100048.88;4872562;28;20722;-59
2021/05/27 03:54:50;;;;;;;6.03;5.43;;;8.80;99.90;;;9.80;100.00;100052.16;4955900;28;20243;-59
2021/05/27 04:01:19;;;;;;;7.43;5.57;;;8.90;99.90;;;9.84;100.00;100061.56;4989769;28;20808;-59
2021/05/27 04:07:17;;;;;;;6.53;5.93;;;8.90;99.90;;;10.01;100.00;100064.13;4976550;28;20518;-58
2021/05/27 04:09:44;;;;;;;6.90;5.60;;;9.00;99.90;;;10.14;100.00;100063.69;4976557;28;20237;-59
2021/05/27 04:15:23;;;;;;;6.67;5.97;;;9.10;99.90;;;10.14;100.00;100060.22;4971514;28;20566;-61
2021/05/27 04:17:55;;;;;;;5.90;5.30;;;9.10;99.90;;;10.15;100.00;100070.72;4989438;28;20223;-58
2021/05/27 04:20:23;;;;;;;6.00;5.23;;;9.20;99.90;;;10.15;100.00;100072.53;4990359;28;20410;-58
2021/05/27 04:22:49;;;;;;;5.70;5.10;;;9.20;99.90;;;10.24;100.00;100066.28;4988737;28;20524;-57
2021/05/27 04:25:19;;;;;;;6.03;5.43;;;9.30;99.90;;;10.29;100.00;100075.47;4989605;28;20985;-58
2021/05/27 04:27:47;;;;;;;5.93;5.07;;;9.30;99.90;;;10.32;100.00;100075.16;4990009;28;20649;-56
2021/05/27 04:30:16;;;;;;;5.50;5.07;;;9.40;99.90;;;10.38;100.00;100077.22;4972037;28;20234;-56
2021/05/27 04:32:55;;;;;;;5.70;5.10;;;9.40;99.90;;;10.34;100.00;100078.53;4989356;28;20386;-58
2021/05/27 04:35:30;;;;;;;5.53;5.03;;;9.50;99.90;;;10.41;100.00;100087.56;4986099;28;20732;-56
2021/05/27 04:38:00;;;;;;;7.27;5.60;;;9.50;99.90;;;10.51;100.00;100078.59;4989376;28;20632;-56
2021/05/27 04:40:30;;;;;;;6.00;5.40;;;9.60;99.90;;;10.56;100.00;100084.28;4970838;28;20211;-57
2021/05/27 04:42:57;;;;;;;5.73;4.90;;;9.60;99.90;;;10.57;100.00;100081.44;4986602;28;20231;-55
2021/05/27 04:45:30;;;;;;;5.57;5.07;;;9.70;99.90;;;10.56;100.00;100084.28;4985984;28;20219;-56
2021/05/27 04:48:10;;;;;;;6.47;5.37;;;9.70;99.90;;;10.64;100.00;100087.78;4983701;28;20234;-54
2021/05/27 04:50:37;;;;;;;6.33;5.73;;;9.80;99.90;;;10.64;100.00;100085.13;4982776;28;20338;-57
2021/05/27 04:53:05;;;;;;;5.73;5.17;;;9.80;99.90;;;10.68;100.00;100094.50;4986096;28;20322;-57
2021/05/27 04:55:32;;;;;;;7.30;5.80;;;9.80;99.90;;;10.67;100.00;100094.66;4985948;28;20714;-57
2021/05/27 04:58:00;;;;;;;6.87;5.83;;;9.80;99.90;;;10.69;100.00;100098.03;4985105;28;20230;-58
2021/05/27 05:00:28;;;;;;;6.10;5.50;;;9.90;99.90;;;10.75;100.00;100094.72;4986515;28;20219;-57
2021/05/27 05:03:04;;;;;;;6.43;5.83;;;9.90;99.90;;;10.75;100.00;100100.06;4977989;28;20227;-57
2021/05/27 05:05:35;;;;;;;5.63;5.13;;;9.90;99.90;;;10.81;100.00;100099.38;4985723;28;20550;-57
2021/05/27 05:08:05;;;;;;;7.13;5.73;;;10.00;99.90;;;10.82;100.00;100100.22;4985214;28;20273;-56
2021/05/27 05:10:42;;;;;;;6.03;5.53;;;10.00;99.90;;;10.86;100.00;100101.59;4985719;28;20530;-58
2021/05/27 05:13:08;;;;;;;6.83;5.27;;;10.10;99.90;;;10.85;100.00;100102.59;4986058;28;20210;-56
2021/05/27 05:15:37;;;;;;;7.03;5.63;;;10.10;99.90;;;10.95;100.00;100114.81;4985702;28;20345;-57
2021/05/27 05:18:06;;;;;;;6.03;5.20;;;10.10;99.90;;;10.88;100.00;100110.28;4985488;28;20235;-58
2021/05/27 05:20:35;;;;;;;6.80;5.80;;;10.20;99.90;;;10.91;100.00;100112.63;4985888;28;20278;-56
2021/05/27 05:23:03;;;;;;;7.00;5.30;;;10.20;99.90;;;10.86;100.00;100106.94;4984868;28;20463;-58
2021/05/27 05:25:32;;;;;;;5.20;4.70;;;10.20;99.90;;;10.92;100.00;100112.47;4985307;28;20211;-58
2021/05/27 05:27:59;;;;;;;6.07;5.53;;;10.20;99.90;;;10.94;100.00;100114.97;4966005;28;20233;-57
2021/05/27 05:30:28;;;;;;;7.17;5.70;;;10.20;99.90;;;10.94;100.00;100112.28;4967203;28;20799;-58
2021/05/27 05:32:57;;;;;;;5.97;5.47;;;10.30;99.90;;;10.93;100.00;100119.50;4984500;28;20322;-56
2021/05/27 05:35:24;;;;;;;5.10;4.70;;;10.30;99.90;;;11.02;100.00;100109.63;4984875;28;20714;-57
2021/05/27 05:37:52;;;;;;;6.10;5.50;;;10.30;99.90;;;11.08;100.00;100117.84;4985294;28;20257;-58
2021/05/27 05:40:23;;;;;;;6.80;5.73;;;10.30;99.90;;;11.14;100.00;100119.84;4984291;28;20341;-58
2021/05/27 05:42:51;;;;;;;6.27;5.30;;;10.40;99.90;;;11.19;100.00;100116.69;4978324;28;20261;-59
2021/05/27 05:45:18;;;;;;;8.60;5.20;;;10.40;99.90;;;11.21;100.00;100105.81;4985319;28;20253;-58
2021/05/27 05:47:45;;;;;;;5.67;5.13;;;10.50;99.90;;;11.35;100.00;100108.66;4984801;28;20238;-55
2021/05/27 05:50:14;;;;;;;5.70;5.07;;;10.50;99.90;;;11.39;100.00;100125.22;4984738;28;20369;-58
2021/05/27 05:52:40;;;;;;;5.93;5.23;;;10.60;99.90;;;11.45;100.00;100120.03;4985317;28;20293;-57
2021/05/27 05:55:11;;;;;;;6.00;5.50;;;10.70;99.90;;;11.51;100.00;100124.72;4985901;28;20243;-59
2021/05/27 05:57:50;;;;;;;5.90;5.13;;;10.70;99.90;;;11.51;100.00;100114.00;4984898;28;20235;-57
2021/05/27 06:00:18;;;;;;;5.20;4.70;;;10.80;99.90;;;11.61;100.00;100121.03;4984766;28;20636;-58
2021/05/27 06:02:45;;;;;;;6.10;5.03;;;10.90;99.90;;;11.66;100.00;100127.56;4984735;28;20237;-58
2021/05/27 06:05:23;;;;;;;5.63;5.10;;;10.90;99.90;;;11.67;100.00;100115.84;4966449;28;20549;-55
2021/05/27 06:08:13;;;;;;;5.40;4.90;;;11.00;99.90;;;11.74;100.00;100121.38;4980278;28;20386;-57
2021/05/27 06:10:40;;;;;;;5.63;4.53;;;11.00;99.90;;;11.80;100.00;100116.19;5004852;28;20523;-58
2021/05/27 06:13:19;;;;;;;6.03;5.53;;;11.10;99.90;;;11.71;100.00;100124.38;5004186;28;20421;-57
2021/05/27 06:15:45;;;;;;;5.43;4.93;;;11.10;99.90;;;11.88;100.00;100126.88;5004501;28;20971;-57
2021/05/27 06:18:12;;;;;;;5.23;4.77;;;11.20;99.90;;;11.85;100.00;100115.69;5001975;28;20662;-57
2021/05/27 06:20:47;;;;;;;4.50;4.10;;;11.20;99.90;;;11.90;100.00;100128.56;4986386;28;20729;-57
2021/05/27 06:23:19;;;;;;;5.30;4.40;;;11.30;99.90;;;12.12;100.00;100127.84;4985360;28;20640;-57
2021/05/27 06:25:48;;;;;;;5.37;4.70;;;11.30;99.90;;;12.22;100.00;100123.97;5004289;28;20229;-59
2021/05/27 06:28:16;;;;;;;5.17;4.60;;;11.40;99.90;;;12.27;100.00;100118.06;5004144;28;20229;-57
2021/05/27 06:30:42;;;;;;;4.57;4.10;;;11.50;99.90;;;12.49;100.00;100127.19;5003897;28;20236;-58
2021/05/27 06:33:09;;;;;;;4.73;4.10;;;11.60;99.90;;;12.52;100.00;100114.28;5003688;28;20732;-59
2021/05/27 06:35:37;;;;;;;4.60;4.20;;;11.70;99.90;;;12.79;100.00;100114.81;5004659;28;20661;-58
2021/05/27 06:38:03;;;;;;;4.93;4.10;;;11.80;99.90;;;13.17;100.00;100124.69;5003944;28;20658;-57
2021/05/27 06:40:31;;;;;;;5.57;4.47;;;11.90;99.90;;;13.63;100.00;100125.47;5004179;28;20893;-56
2021/05/27 06:42:57;;;;;;;4.90;4.50;;;12.10;99.90;;;13.47;100.00;100117.56;5003600;28;20621;-56
2021/05/27 06:45:25;;;;;;;4.10;3.80;;;12.40;99.90;;;13.57;100.00;100123.53;5006159;28;20391;-58
2021/05/27 06:47:52;;;;;;;4.50;4.10;;;12.60;99.90;;;14.12;100.00;100122.28;5007756;28;20597;-57
2021/05/27 06:50:32;;;;;;;5.23;4.37;;;12.90;99.90;;;13.83;100.00;100106.97;5007662;28;20226;-57
2021/05/27 06:53:00;;;;;;;4.30;3.90;;;13.10;99.90;;;13.53;100.00;100111.47;5007538;28;20394;-57
2021/05/27 06:55:27;;;;;;;4.50;4.07;;;13.40;99.90;;;13.98;100.00;100115.03;5000137;28;20317;-57
2021/05/27 06:57:54;;;;;;;4.00;3.60;;;13.40;99.90;;;13.82;100.00;100118.75;5006784;28;20569;-57
2021/05/27 07:00:22;;;;;;;3.90;3.60;;;13.50;99.90;;;14.08;100.00;100131.78;5007251;28;20838;-56
2021/05/27 07:02:51;;;;;;;6.83;4.53;;;13.60;99.90;;;14.16;100.00;100112.84;5006665;28;20440;-58
2021/05/27 07:05:17;;;;;;;4.30;3.90;;;13.80;99.90;;;14.36;100.00;100105.88;5007026;28;20510;-58
2021/05/27 07:07:44;;;;;;;4.37;3.67;;;13.90;99.90;;;14.58;100.00;100106.81;5007231;28;20249;-56
2021/05/27 07:10:13;;;;;;;4.00;3.70;;;14.10;99.90;;;14.73;100.00;100115.69;5007365;28;20226;-58
2021/05/27 07:12:46;;;;;;;4.30;3.90;;;14.30;99.90;;;14.56;100.00;100113.41;5006792;28;20237;-57
2021/05/27 07:15:36;;;;;;;3.83;3.43;;;14.50;99.90;;;14.08;100.00;100099.50;5006771;28;20324;-58
2021/05/27 07:18:05;;;;;;;5.10;3.47;;;14.50;99.90;;;14.03;100.00;100109.97;5007138;28;20527;-57
2021/05/27 07:20:32;;;;;;;3.77;3.40;;;14.50;99.90;;;13.73;100.00;100108.25;5021571;28;20261;-58
2021/05/27 07:22:58;;;;;;;4.10;3.70;;;14.40;99.90;;;13.67;100.00;100104.44;5007529;28;20743;-58
2021/05/27 07:25:26;;;;;;;5.80;3.90;;;14.20;99.90;;;13.61;100.00;100108.69;5007657;28;20613;-59
2021/05/27 07:27:54;;;;;;;4.30;3.90;;;14.10;99.90;;;13.56;100.00;100110.25;5004568;28;20223;-58
2021/05/27 07:30:22;;;;;;;3.70;3.40;;;13.90;99.90;;;13.66;100.00;100098.22;5004380;28;20245;-57
2021/05/27 07:32:57;;;;;;;4.00;3.47;;;13.90;99.90;;;13.75;100.00;100108.91;4995851;28;20581;-57
2021/05/27 07:35:26;;;;;;;4.60;3.93;;;13.80;99.90;;;13.93;100.00;100104.84;5007307;28;20673;-58
2021/05/27 07:37:53;;;;;;;3.67;3.37;;;13.80;99.90;;;13.85;100.00;100096.00;5006076;28;20633;-59
2021/05/27 07:40:20;;;;;;;3.97;3.40;;;13.90;99.90;;;14.16;100.00;100110.16;5006390;28;20329;-58
2021/05/27 07:42:47;;;;;;;4.30;3.33;;;13.90;99.90;;;14.25;100.00;100106.34;5006254;28;20230;-57
2021/05/27 07:45:15;;;;;;;4.17;3.77;;;14.00;99.90;;;14.28;100.00;100107.81;5006415;28;20595;-57
2021/05/27 07:47:42;;;;;;;3.40;3.10;;;14.10;99.90;;;14.47;100.00;100109.13;5004103;28;20249;-57
2021/05/27 07:50:11;;;;;;;3.20;2.90;;;14.20;99.90;;;14.46;100.00;100107.50;5007531;28;20258;-57
2021/05/27 07:52:38;;;;;;;4.73;3.70;;;14.30;99.90;;;14.47;100.00;100095.66;5006643;28;20555;-58
2021/05/27 07:55:06;;;;;;;3.60;3.30;;;14.40;99.90;;;14.56;100.00;100094.56;5004995;28;20442;-57
2021/05/27 07:57:33;;;;;;;4.43;3.13;;;14.50;99.90;;;14.68;100.00;100093.06;5004591;28;20226;-57
2021/05/27 07:59:59;;;;;;;3.77;3.20;;;14.50;99.90;;;14.84;100.00;100100.03;5007474;28;20391;-58
2021/05/27 08:02:26;;;;;;;4.43;2.97;;;14.70;99.90;;;14.79;100.00;100102.50;5005036;28;20720;-58
2021/05/27 08:04:52;;;;;;;5.22;3.10;;;14.70;99.90;;;15.12;100.00;100103.69;5008698;28;20262;-58
2021/05/27 08:07:18;;;;;;;3.75;3.22;;;14.90;99.90;;;15.44;100.00;100105.03;5004129;28;20701;-58
2021/05/27 08:09:46;;;;;;;4.63;3.08;;;15.10;99.90;;;15.39;100.00;100097.53;5004390;28;20900;-57
2021/05/27 08:25:21;;;;;;;2.47;2.20;;;15.40;98.10;;;15.05;100.00;100117.09;4944094;28;20240;-57
2021/05/27 08:52:44;;;;;;;4.05;2.72;;;15.90;95.30;;;15.91;100.00;100108.97;4869412;29;20247;-58
2021/05/27 09:11:54;;;;;;;1.90;1.80;;;15.80;93.00;;;15.33;100.00;100125.22;4913508;28;20233;-58
2021/05/27 09:20:07;;;;;;;2.30;2.15;;;15.60;94.40;;;15.08;100.00;100132.06;4859291;29;20778;-59
2021/05/27 09:43:41;;;;;;;2.83;2.53;;;13.60;99.90;;;14.57;100.00;100150.94;4907114;28;20234;-56
2021/05/27 11:52:44;;;;;;;0.60;0.50;;;11.30;99.90;;;12.15;100.00;100246.34;4957852;28;20598;-59
2021/05/27 12:12:59;;;;;;;1.20;1.10;;;11.80;99.90;;;13.78;100.00;100222.31;4721915;29;20622;-58
2021/05/27 12:49:09;;;;;;;0.67;0.50;;;14.70;99.90;;;14.22;100.00;100226.97;4823753;29;20988;-58
2021/05/27 13:29:23;;;;;;;2.70;0.50;;;11.70;99.90;;;11.69;100.00;100296.09;4901741;28;20213;-59
2021/05/27 14:13:09;;;;;;;0.40;0.40;;;11.60;99.90;;;12.42;100.00;100304.19;4836286;29;20409;-61
2021/05/27 14:28:42;;;;;;;0.40;0.40;;;12.00;99.90;;;12.79;100.00;100294.72;4791237;29;20422;-58
2021/05/27 14:54:46;;;;;;;1.47;0.50;;;12.30;99.90;;;12.64;100.00;100313.38;4869443;28;20426;-58
2021/05/27 15:27:02;;;;;;;0.97;0.80;;;13.10;99.90;;;13.90;100.00;100304.25;4732354;29;20549;-58
2021/05/27 15:34:13;;;;;;;1.10;0.70;;;13.30;99.90;;;13.90;100.00;100306.94;4822474;29;20767;-58
2021/05/27 19:26:26;;;;;;;2.60;2.40;;;11.80;99.90;;;12.74;100.00;100412.50;4822644;29;20514;-59
2021/05/27 20:55:19;;;;;;;6.40;4.37;;;10.80;99.90;;;11.68;100.00;100518.72;4721847;29;20622;-58
2021/05/27 21:42:34;;;;;;;5.13;4.63;;;10.60;99.90;;;11.60;100.00;100527.56;4762588;29;20237;-61
2021/05/27 22:34:45;;;;;;;8.83;5.43;;;10.20;99.90;;;11.49;100.00;100574.22;4673987;30;20237;-60
2021/05/27 22:52:56;;;;;;;5.73;5.13;;;10.50;99.90;;;11.59;100.00;100574.13;4759056;29;20632;-61
2021/05/27 23:13:00;;;;;;;5.40;4.90;;;10.60;99.90;;;11.51;100.00;100587.44;4720336;29;21095;-59
2021/05/27 23:24:48;;;;;;;6.20;5.60;;;10.60;99.90;;;11.41;100.00;100592.91;4730846;29;20265;-61
2021/05/27 23:32:02;;;;;;;8.00;5.53;;;10.60;99.90;;;11.45;100.00;100599.66;4819591;29;20623;-61
